Time;durP1;ratioP1;P1;durP2;ratioP2;P2;SDS_P1;SDS_P2;PMS_P1;PMS_P2;Temp;Humidity;BMP_temperature;BMP_pressure;BME280_temperature;BME280_humidity;BME280_pressure;Samples;Min_cycle;Max_cycle;Signal;HPM_P1;HPM_P2
2021/04/29 00:00:13;;;;;;;8.37;7.70;;;15.00;93.00;;;;;;5040544;28;20626;-52
2021/04/29 00:02:40;;;;;;;9.87;8.97;;;15.00;93.00;;;;;;5054641;28;21252;-51
2021/04/29 00:05:07;;;;;;;10.43;9.43;;;15.00;93.10;;;;;;5037732;28;20692;-51
2021/04/29 00:07:34;;;;;;;10.27;9.40;;;15.00;93.20;;;;;;5034130;28;20724;-51
2021/04/29 00:10:01;;;;;;;12.50;10.67;;;14.90;93.20;;;;;;5039638;28;20618;-51
2021/04/29 00:12:29;;;;;;;11.50;10.40;;;14.90;93.20;;;;;;5055089;28;20649;-51
2021/04/29 00:14:56;;;;;;;11.67;10.47;;;14.90;93.10;;;;;;5053631;28;20719;-51
2021/04/29 00:17:22;;;;;;;12.40;9.70;;;14.70;93.10;;;;;;5053481;28;20698;-51
2021/04/29 00:19:49;;;;;;;11.03;10.13;;;14.60;93.30;;;;;;5050973;28;20627;-51
2021/04/29 00:22:16;;;;;;;10.60;9.60;;;14.40;93.70;;;;;;5034536;28;20626;-51
2021/04/29 00:24:43;;;;;;;12.10;10.90;;;14.30;94.00;;;;;;5034606;28;20633;-52
2021/04/29 00:27:09;;;;;;;11.13;10.23;;;14.40;94.20;;;;;;5034303;28;20662;-51
2021/04/29 00:29:37;;;;;;;11.17;10.07;;;14.40;94.20;;;;;;5047726;28;20702;-50
2021/04/29 00:32:04;;;;;;;9.43;8.63;;;14.30;94.10;;;;;;5053957;28;20634;-51
2021/04/29 00:34:31;;;;;;;10.93;9.93;;;14.20;94.30;;;;;;5053540;28;20626;-51
2021/04/29 00:36:57;;;;;;;11.70;10.50;;;14.20;94.50;;;;;;5035204;28;20735;-52
2021/04/29 00:39:24;;;;;;;10.07;9.17;;;14.20;94.60;;;;;;5040572;28;20688;-51
2021/04/29 00:41:51;;;;;;;11.83;10.50;;;14.20;94.70;;;;;;5033677;28;20687;-52
2021/04/29 00:44:18;;;;;;;12.47;11.37;;;14.20;94.70;;;;;;5033494;28;21004;-51
2021/04/29 00:46:45;;;;;;;12.67;11.67;;;14.20;94.70;;;;;;5033330;28;20701;-51
2021/04/29 00:49:12;;;;;;;11.90;10.50;;;14.20;94.70;;;;;;5043772;28;20630;-52
2021/04/29 00:51:39;;;;;;;12.03;10.93;;;14.20;94.80;;;;;;5052686;28;21029;-51
2021/04/29 00:54:06;;;;;;;12.00;11.00;;;14.10;94.70;;;;;;5053067;28;20622;-51
2021/04/29 00:56:32;;;;;;;12.17;10.27;;;14.10;94.80;;;;;;5052674;28;20670;-50
2021/04/29 00:58:59;;;;;;;12.10;11.00;;;14.10;94.80;;;;;;5044316;28;20646;-50
2021/04/29 01:01:26;;;;;;;11.67;9.87;;;14.10;94.70;;;;;;5033314;28;20631;-51
2021/04/29 01:03:54;;;;;;;9.63;8.70;;;14.10;94.70;;;;;;5033469;28;20676;-51
2021/04/29 01:06:23;;;;;;;10.37;9.47;;;14.10;94.60;;;;;;5033206;28;20700;-51
2021/04/29 01:08:53;;;;;;;11.47;10.47;;;14.10;94.70;;;;;;5038014;28;20664;-51
2021/04/29 01:11:21;;;;;;;12.97;11.80;;;14.00;94.90;;;;;;5052520;28;20987;-50
2021/04/29 01:13:49;;;;;;;11.53;10.43;;;14.00;95.10;;;;;;5052682;28;20699;-51
2021/04/29 01:16:16;;;;;;;11.33;10.23;;;14.00;95.10;;;;;;5052816;28;21268;-51
2021/04/29 01:18:43;;;;;;;11.83;10.80;;;14.00;95.20;;;;;;5050925;28;20630;-51
2021/04/29 01:21:12;;;;;;;12.10;10.93;;;14.00;95.30;;;;;;5032963;28;20658;-50
2021/04/29 01:23:48;;;;;;;11.53;10.50;;;14.00;95.50;;;;;;5032355;28;20642;-51
2021/04/29 01:26:17;;;;;;;11.10;10.00;;;14.00;95.30;;;;;;5035899;28;20638;-51
2021/04/29 01:28:45;;;;;;;9.67;8.67;;;14.00;95.20;;;;;;5033603;28;21180;-50
2021/04/29 01:31:12;;;;;;;11.93;10.73;;;14.00;95.30;;;;;;5032467;28;20635;-51
2021/04/29 01:33:39;;;;;;;12.50;11.40;;;14.00;95.50;;;;;;5032935;28;21191;-51
2021/04/29 01:36:06;;;;;;;12.10;10.87;;;13.90;95.40;;;;;;5039248;28;20707;-51
2021/04/29 01:38:33;;;;;;;14.50;13.10;;;13.80;95.50;;;;;;5052175;28;20628;-51
2021/04/29 01:41:00;;;;;;;12.20;11.10;;;13.80;95.70;;;;;;5051836;28;20625;-50
2021/04/29 01:43:27;;;;;;;12.20;10.73;;;13.70;95.80;;;;;;5052220;28;20676;-50
2021/04/29 01:45:54;;;;;;;11.93;10.93;;;13.60;96.00;;;;;;5046294;28;20634;-49
2021/04/29 01:48:21;;;;;;;10.60;9.70;;;13.70;96.10;;;;;;5031979;28;20693;-49
2021/04/29 01:50:48;;;;;;;11.80;9.80;;;13.70;95.90;;;;;;5032691;28;21021;-51
2021/04/29 01:53:14;;;;;;;11.47;10.37;;;13.60;95.90;;;;;;5032216;28;20749;-51
2021/04/29 01:55:41;;;;;;;10.53;9.63;;;13.70;96.00;;;;;;5036093;28;20724;-51
2021/04/29 01:58:08;;;;;;;10.80;9.83;;;13.70;96.00;;;;;;5031582;28;20717;-51
2021/04/29 02:00:35;;;;;;;9.80;8.90;;;13.80;96.00;;;;;;5031766;28;20661;-50
2021/04/29 02:03:02;;;;;;;9.00;8.30;;;13.80;95.60;;;;;;5031594;28;21188;-50
2021/04/29 02:05:29;;;;;;;10.23;9.33;;;13.80;95.40;;;;;;5033048;28;20700;-51
2021/04/29 02:07:57;;;;;;;13.90;9.97;;;13.80;95.50;;;;;;5048516;28;20646;-51
2021/04/29 02:10:24;;;;;;;10.33;9.40;;;13.80;95.50;;;;;;5032284;28;20626;-51
2021/04/29 02:12:52;;;;;;;10.80;9.27;;;13.80;95.50;;;;;;5031810;28;20634;-51
2021/04/29 02:15:19;;;;;;;10.40;9.40;;;13.80;95.60;;;;;;5031675;28;20659;-50
2021/04/29 02:17:49;;;;;;;9.97;9.20;;;13.80;95.60;;;;;;5031037;28;20659;-51
2021/04/29 02:20:16;;;;;;;11.33;10.23;;;13.80;95.60;;;;;;5031566;28;20681;-50
2021/04/29 02:22:44;;;;;;;11.27;10.17;;;13.90;95.60;;;;;;5031947;28;20631;-50
2021/04/29 02:25:12;;;;;;;11.07;10.17;;;13.90;95.60;;;;;;5034462;28;20626;-51
2021/04/29 02:27:39;;;;;;;10.50;9.47;;;13.90;95.40;;;;;;5031531;28;21019;-50
2021/04/29 02:30:07;;;;;;;10.73;9.73;;;13.90;95.40;;;;;;5031239;28;20655;-50
2021/04/29 02:32:35;;;;;;;11.10;9.90;;;13.90;95.30;;;;;;5031824;28;21187;-50
2021/04/29 02:35:04;;;;;;;11.63;10.53;;;13.90;95.20;;;;;;5031264;28;20659;-50
2021/04/29 02:37:32;;;;;;;11.97;10.97;;;14.00;95.30;;;;;;5048416;28;20658;-50
2021/04/29 02:39:59;;;;;;;13.57;12.27;;;14.00;95.40;;;;;;5051468;28;20695;-50
2021/04/29 02:42:25;;;;;;;11.83;10.77;;;13.90;95.40;;;;;;5050977;28;20770;-50
2021/04/29 02:44:52;;;;;;;15.60;12.20;;;14.00;95.40;;;;;;5051257;28;20618;-51
2021/04/29 02:47:19;;;;;;;12.37;11.30;;;13.90;95.20;;;;;;5034698;28;20650;-51
2021/04/29 02:49:46;;;;;;;12.93;11.60;;;13.90;95.20;;;;;;5030967;28;20619;-51
2021/04/29 02:52:12;;;;;;;12.43;11.33;;;13.90;95.60;;;;;;5030881;28;20633;-50
2021/04/29 02:54:40;;;;;;;15.13;13.73;;;13.90;95.50;;;;;;5031043;28;20686;-51
2021/04/29 02:57:07;;;;;;;13.07;11.90;;;13.90;95.50;;;;;;5035830;28;20674;-51
2021/04/29 02:59:39;;;;;;;13.57;12.37;;;13.80;95.40;;;;;;5030821;28;20635;-51
2021/04/29 03:02:08;;;;;;;14.27;12.90;;;13.80;95.50;;;;;;5031157;28;20709;-51
2021/04/29 03:04:34;;;;;;;14.30;12.77;;;13.80;95.60;;;;;;5030703;28;20707;-50
2021/04/29 03:07:01;;;;;;;14.30;12.90;;;13.80;95.70;;;;;;5046100;28;20658;-51
2021/04/29 03:09:28;;;;;;;16.03;14.53;;;13.80;95.80;;;;;;5050516;28;20703;-51
2021/04/29 03:11:55;;;;;;;15.30;13.90;;;13.80;95.80;;;;;;5032858;28;20630;-50
2021/04/29 03:14:22;;;;;;;17.73;15.97;;;13.80;95.60;;;;;;5043762;28;20661;-51
2021/04/29 03:16:49;;;;;;;19.37;17.50;;;13.80;95.90;;;;;;5031004;28;21085;-51
2021/04/29 03:19:16;;;;;;;17.70;16.23;;;13.80;95.90;;;;;;5030783;28;20654;-51
2021/04/29 03:21:42;;;;;;;19.20;17.60;;;13.80;96.20;;;;;;5031743;28;20683;-51
2021/04/29 03:24:09;;;;;;;17.97;16.17;;;13.80;95.80;;;;;;5036608;28;20637;-51
2021/04/29 03:26:36;;;;;;;18.40;16.40;;;13.80;95.90;;;;;;5036782;28;20663;-51
2021/04/29 03:29:04;;;;;;;17.93;16.23;;;13.80;96.00;;;;;;5030788;28;20692;-51
2021/04/29 03:31:31;;;;;;;18.57;16.77;;;13.70;96.10;;;;;;5030946;28;20631;-51
2021/04/29 03:33:57;;;;;;;18.60;16.70;;;13.70;96.10;;;;;;5031478;28;20962;-51
2021/04/29 03:36:24;;;;;;;19.27;17.57;;;13.70;96.20;;;;;;5030917;28;20736;-52
2021/04/29 03:38:51;;;;;;;16.90;15.20;;;13.60;96.30;;;;;;5029999;28;20626;-51
2021/04/29 03:41:17;;;;;;;16.70;15.00;;;13.50;96.20;;;;;;5030609;28;21168;-51
2021/04/29 03:43:44;;;;;;;17.07;15.37;;;13.50;96.30;;;;;;5031029;28;20634;-52
2021/04/29 03:46:12;;;;;;;16.00;13.53;;;13.40;96.40;;;;;;5039645;28;21036;-51
2021/04/29 03:48:38;;;;;;;16.87;15.30;;;13.50;96.50;;;;;;5050030;28;20693;-51
2021/04/29 03:51:05;;;;;;;15.03;13.43;;;13.40;96.60;;;;;;5050657;28;21033;-51
2021/04/29 03:53:32;;;;;;;17.37;15.70;;;13.40;96.50;;;;;;5049960;28;20633;-51
2021/04/29 03:55:59;;;;;;;14.83;13.53;;;13.40;96.60;;;;;;5043082;28;20732;-51
2021/04/29 03:58:25;;;;;;;16.90;14.07;;;13.40;96.60;;;;;;5030001;28;20722;-51
2021/04/29 04:00:52;;;;;;;17.87;14.60;;;13.30;96.50;;;;;;5030802;28;20669;-52
2021/04/29 04:03:20;;;;;;;14.90;13.47;;;13.40;96.60;;;;;;5031627;28;20630;-52
2021/04/29 04:05:47;;;;;;;17.43;15.63;;;13.30;96.50;;;;;;5032876;28;20683;-52
2021/04/29 04:08:13;;;;;;;14.27;12.90;;;13.30;96.60;;;;;;5034940;28;21559;-52
2021/04/29 04:10:40;;;;;;;13.10;11.90;;;13.30;96.60;;;;;;5033750;28;20675;-52
2021/04/29 04:13:16;;;;;;;17.43;15.73;;;13.40;96.50;;;;;;5034027;28;20634;-52
2021/04/29 04:15:42;;;;;;;13.87;12.60;;;13.40;96.40;;;;;;5033852;28;20707;-52
2021/04/29 04:18:09;;;;;;;12.90;11.70;;;13.40;96.30;;;;;;5033520;28;20662;-51
2021/04/29 04:20:37;;;;;;;14.87;11.30;;;13.40;96.30;;;;;;5053913;28;20636;-51
2021/04/29 04:23:03;;;;;;;14.50;12.50;;;13.40;96.40;;;;;;5054189;28;20610;-52
2021/04/29 04:25:30;;;;;;;13.33;11.93;;;13.30;96.40;;;;;;5053801;28;20636;-52
2021/04/29 04:27:57;;;;;;;14.87;13.37;;;13.30;96.50;;;;;;5053478;28;21213;-51
2021/04/29 04:30:24;;;;;;;14.40;12.90;;;13.30;96.40;;;;;;5035125;28;20631;-51
2021/04/29 04:32:50;;;;;;;14.50;13.03;;;13.30;96.50;;;;;;5033353;28;20696;-51
2021/04/29 04:35:17;;;;;;;13.40;12.07;;;13.30;96.50;;;;;;5033450;28;20974;-50
2021/04/29 04:37:45;;;;;;;12.43;11.23;;;13.20;96.60;;;;;;5033122;28;21009;-50
2021/04/29 04:40:12;;;;;;;15.30;12.87;;;13.20;96.60;;;;;;5052607;28;20703;-51
2021/04/29 04:42:39;;;;;;;14.53;13.03;;;13.20;96.70;;;;;;5053240;28;20665;-51
2021/04/29 04:45:06;;;;;;;14.77;12.23;;;13.20;96.80;;;;;;5052988;28;20630;-50
2021/04/29 04:47:33;;;;;;;12.17;10.93;;;13.10;96.70;;;;;;5052653;28;21242;-51
2021/04/29 04:50:00;;;;;;;15.90;12.70;;;13.10;96.80;;;;;;5035400;28;20634;-51
2021/04/29 04:52:27;;;;;;;13.87;12.47;;;13.10;96.90;;;;;;5034264;28;21002;-51
2021/04/29 04:54:55;;;;;;;13.90;12.50;;;13.10;97.00;;;;;;5033975;28;20631;-51
2021/04/29 04:57:21;;;;;;;15.53;14.07;;;13.00;97.30;;;;;;5053460;28;20755;-51
2021/04/29 04:59:48;;;;;;;15.70;14.10;;;13.00;97.10;;;;;;5052785;28;20634;-51
2021/04/29 05:02:15;;;;;;;15.10;13.70;;;13.00;97.20;;;;;;5045013;28;20627;-51
2021/04/29 05:04:42;;;;;;;15.83;14.13;;;13.00;97.20;;;;;;5033424;28;20657;-51
2021/04/29 05:07:10;;;;;;;17.13;15.53;;;13.00;97.20;;;;;;5033202;28;20655;-51
2021/04/29 05:09:37;;;;;;;15.77;14.27;;;13.10;97.20;;;;;;5033026;28;20630;-51
2021/04/29 05:12:05;;;;;;;16.20;14.50;;;13.10;97.10;;;;;;5051338;28;20654;-51
2021/04/29 05:14:32;;;;;;;16.67;15.07;;;13.10;97.20;;;;;;5052057;28;20628;-51
2021/04/29 05:16:59;;;;;;;15.30;13.80;;;13.20;97.10;;;;;;5051907;28;20743;-51
2021/04/29 05:19:26;;;;;;;17.00;15.40;;;13.30;97.40;;;;;;5052097;28;20995;-51
2021/04/29 05:21:53;;;;;;;14.87;13.40;;;13.30;97.00;;;;;;5034899;28;20696;-51
2021/04/29 05:24:20;;;;;;;18.10;15.23;;;13.30;97.00;;;;;;5032167;28;20692;-51
2021/04/29 05:26:47;;;;;;;16.07;14.47;;;13.30;96.80;;;;;;5047783;28;20662;-51
2021/04/29 05:29:14;;;;;;;18.03;16.43;;;13.40;96.80;;;;;;5049552;28;20657;-52
2021/04/29 05:31:41;;;;;;;18.40;16.80;;;13.50;96.80;;;;;;5051667;28;20684;-52
2021/04/29 05:34:08;;;;;;;17.40;15.70;;;13.40;96.70;;;;;;5052410;28;20618;-51
2021/04/29 05:36:34;;;;;;;18.90;17.07;;;13.40;96.80;;;;;;5051563;28;21141;-51
2021/04/29 05:39:01;;;;;;;17.20;15.60;;;13.50;97.00;;;;;;5036842;28;21184;-52
2021/04/29 05:41:29;;;;;;;19.37;17.57;;;13.50;97.10;;;;;;5032612;28;20662;-51
2021/04/29 05:43:55;;;;;;;15.40;13.80;;;13.60;97.00;;;;;;5032222;28;20599;-52
2021/04/29 05:46:23;;;;;;;19.80;17.90;;;13.50;97.00;;;;;;5032014;28;20623;-51
2021/04/29 05:48:50;;;;;;;19.13;17.33;;;13.60;97.10;;;;;;5031423;28;20615;-52
2021/04/29 05:51:16;;;;;;;13.93;10.43;;;13.60;97.10;;;;;;5033038;28;20623;-51
2021/04/29 05:53:43;;;;;;;16.73;15.10;;;13.50;96.90;;;;;;5032240;28;20681;-50
2021/04/29 05:56:10;;;;;;;13.67;12.17;;;13.60;97.00;;;;;;5058649;28;21074;-51
2021/04/29 05:58:37;;;;;;;13.37;11.97;;;13.60;96.90;;;;;;5050979;28;20634;-51
2021/04/29 06:01:03;;;;;;;13.67;10.40;;;13.60;96.80;;;;;;5043913;28;20630;-51
2021/04/29 06:03:31;;;;;;;12.00;10.90;;;13.60;96.50;;;;;;5031211;28;21269;-51
2021/04/29 06:05:58;;;;;;;11.93;10.83;;;13.60;96.50;;;;;;5031941;28;20630;-50
2021/04/29 06:08:24;;;;;;;11.10;10.10;;;13.60;96.30;;;;;;5030813;28;21070;-51
2021/04/29 06:10:51;;;;;;;11.77;10.17;;;13.70;95.80;;;;;;5031384;28;20685;-51
2021/04/29 06:13:19;;;;;;;12.27;11.10;;;13.70;95.70;;;;;;5038157;28;21191;-52
2021/04/29 06:15:46;;;;;;;12.37;10.37;;;13.80;95.80;;;;;;5052055;28;20622;-52
2021/04/29 06:18:12;;;;;;;13.67;12.27;;;13.80;95.40;;;;;;5050992;28;20729;-52
2021/04/29 06:20:41;;;;;;;12.33;10.80;;;13.80;95.40;;;;;;5050891;28;20657;-52
2021/04/29 06:23:08;;;;;;;12.70;9.73;;;13.80;95.50;;;;;;5031960;28;20685;-51
2021/04/29 06:25:34;;;;;;;10.57;9.47;;;13.90;95.60;;;;;;5037429;28;20626;-52
2021/04/29 06:28:01;;;;;;;8.80;8.00;;;14.00;95.40;;;;;;5050672;28;20686;-54
2021/04/29 06:30:28;;;;;;;10.23;8.93;;;14.00;95.00;;;;;;5051411;28;20691;-52
2021/04/29 06:32:55;;;;;;;9.03;7.90;;;14.00;95.00;;;;;;5019596;28;20644;-54
2021/04/29 06:35:23;;;;;;;10.20;9.30;;;13.90;95.20;;;;;;5032035;28;20646;-52
2021/04/29 06:37:50;;;;;;;10.13;8.60;;;13.90;95.30;;;;;;5031535;28;20706;-52
2021/04/29 06:40:17;;;;;;;10.33;8.87;;;13.90;95.50;;;;;;5036263;28;20622;-52
2021/04/29 06:42:44;;;;;;;11.60;10.40;;;13.90;95.70;;;;;;5050778;28;21267;-52
2021/04/29 06:45:12;;;;;;;10.33;8.90;;;14.00;95.90;;;;;;5051171;28;20614;-52
2021/04/29 06:47:38;;;;;;;8.87;7.97;;;14.10;95.50;;;;;;5032435;28;20662;-51
2021/04/29 06:50:06;;;;;;;10.03;8.97;;;14.10;95.30;;;;;;5029945;28;20630;-50
2021/04/29 06:52:35;;;;;;;10.30;9.17;;;14.10;95.30;;;;;;5027050;28;20627;-52
2021/04/29 06:55:03;;;;;;;10.23;9.33;;;14.20;95.30;;;;;;5042865;28;20649;-51
2021/04/29 06:57:33;;;;;;;9.50;8.40;;;14.40;94.90;;;;;;5050180;28;20674;-50
2021/04/29 07:00:00;;;;;;;8.13;7.50;;;14.40;94.60;;;;;;5050833;28;20622;-53
2021/04/29 07:02:30;;;;;;;8.93;8.10;;;14.50;94.70;;;;;;5050788;28;20696;-53
2021/04/29 07:04:56;;;;;;;8.30;7.60;;;14.70;94.30;;;;;;5061880;28;20625;-51
2021/04/29 07:07:23;;;;;;;7.17;6.63;;;14.80;93.70;;;;;;5043568;28;20723;-52
2021/04/29 07:09:53;;;;;;;9.60;8.60;;;14.70;93.50;;;;;;5048423;28;20654;-51
2021/04/29 07:12:21;;;;;;;6.80;6.20;;;14.80;93.20;;;;;;5042427;28;21194;-51
2021/04/29 07:14:48;;;;;;;7.57;6.80;;;14.90;93.00;;;;;;5050458;28;21163;-51
2021/04/29 07:17:14;;;;;;;8.17;7.47;;;14.90;93.20;;;;;;5046762;28;20696;-51
2021/04/29 07:19:41;;;;;;;7.60;6.60;;;14.90;92.60;;;;;;5047456;28;20626;-51
2021/04/29 07:22:08;;;;;;;7.10;6.57;;;14.90;92.70;;;;;;5050158;28;20692;-52
2021/04/29 07:24:35;;;;;;;8.23;7.23;;;14.90;92.70;;;;;;5048202;28;20689;-51
2021/04/29 07:27:02;;;;;;;7.10;6.40;;;15.00;92.50;;;;;;5049850;28;20642;-51
2021/04/29 07:29:31;;;;;;;7.57;6.77;;;15.00;92.50;;;;;;5050459;28;20626;-52
2021/04/29 07:31:58;;;;;;;8.63;6.10;;;15.10;91.70;;;;;;5050060;28;20695;-51
2021/04/29 07:34:25;;;;;;;7.33;6.60;;;15.10;91.70;;;;;;5043531;28;20688;-52
2021/04/29 07:36:52;;;;;;;7.93;6.50;;;15.20;91.90;;;;;;5031670;28;20675;-51
2021/04/29 07:39:19;;;;;;;7.43;6.83;;;15.40;91.50;;;;;;5048451;28;20656;-50
2021/04/29 07:41:46;;;;;;;9.90;6.40;;;15.50;90.70;;;;;;5054443;28;20625;-50
2021/04/29 07:44:15;;;;;;;7.23;5.57;;;15.50;90.20;;;;;;5063064;28;20652;-51
2021/04/29 07:46:43;;;;;;;7.97;6.40;;;15.60;90.20;;;;;;5073553;28;20657;-52
2021/04/29 07:49:10;;;;;;;5.93;5.43;;;15.60;89.20;;;;;;5044534;28;20652;-52
2021/04/29 07:51:39;;;;;;;7.40;6.87;;;15.50;88.40;;;;;;5034144;28;20641;-52
2021/04/29 07:54:06;;;;;;;8.30;7.40;;;15.40;89.30;;;;;;5054010;28;20634;-51
2021/04/29 07:56:33;;;;;;;8.93;7.07;;;15.30;87.70;;;;;;5053781;28;20661;-51
2021/04/29 07:59:00;;;;;;;6.83;6.13;;;15.20;88.80;;;;;;5040514;28;20653;-52
2021/04/29 08:01:27;;;;;;;7.97;6.80;;;15.20;89.10;;;;;;5041404;28;20621;-52
2021/04/29 08:03:55;;;;;;;8.13;7.33;;;15.10;88.70;;;;;;5051379;28;20629;-53
2021/04/29 08:06:22;;;;;;;11.07;7.17;;;15.20;88.80;;;;;;5054242;28;20614;-51
2021/04/29 08:08:49;;;;;;;9.70;7.93;;;15.20;88.30;;;;;;5053955;28;20675;-49
2021/04/29 08:11:16;;;;;;;8.00;7.30;;;15.20;88.90;;;;;;5042461;28;20622;-52
2021/04/29 08:13:42;;;;;;;10.00;7.80;;;15.20;88.70;;;;;;5052859;28;20630;-52
2021/04/29 08:16:09;;;;;;;10.40;9.50;;;15.30;88.80;;;;;;5052583;28;20679;-52
2021/04/29 08:18:39;;;;;;;8.00;7.27;;;15.30;88.30;;;;;;5053072;28;20650;-52
2021/04/29 08:21:08;;;;;;;7.70;6.97;;;15.40;87.70;;;;;;5053142;28;20634;-52
2021/04/29 08:23:35;;;;;;;10.10;8.63;;;15.50;87.30;;;;;;5051293;28;20661;-51
2021/04/29 08:26:02;;;;;;;9.10;8.30;;;15.60;87.10;;;;;;5051155;28;20673;-51
2021/04/29 08:28:29;;;;;;;9.03;8.27;;;15.70;86.50;;;;;;5052817;28;21276;-51
2021/04/29 08:30:57;;;;;;;8.90;8.30;;;15.90;85.00;;;;;;5053304;28;20983;-52
2021/04/29 08:33:27;;;;;;;9.63;8.93;;;16.00;84.50;;;;;;5053349;28;20609;-52
2021/04/29 08:35:57;;;;;;;8.53;7.73;;;16.20;84.70;;;;;;5053340;28;20656;-52
2021/04/29 08:38:33;;;;;;;8.90;7.80;;;16.60;84.40;;;;;;5052568;28;20733;-52
2021/04/29 08:41:01;;;;;;;9.53;8.73;;;16.70;81.30;;;;;;5053194;28;20679;-52
2021/04/29 08:43:30;;;;;;;10.00;9.13;;;16.70;79.80;;;;;;5056647;28;21239;-52
2021/04/29 08:45:57;;;;;;;10.00;9.10;;;16.70;79.10;;;;;;5064531;28;20625;-52
2021/04/29 08:48:25;;;;;;;9.03;8.23;;;16.70;78.30;;;;;;5052276;28;20646;-52
2021/04/29 08:50:55;;;;;;;10.60;9.60;;;16.70;79.30;;;;;;5052673;28;20667;-54
2021/04/29 08:53:25;;;;;;;10.50;9.70;;;16.50;79.00;;;;;;5052602;28;20638;-53
2021/04/29 08:55:53;;;;;;;10.87;9.97;;;16.40;79.00;;;;;;5052947;28;21509;-51
2021/04/29 08:58:21;;;;;;;11.70;10.70;;;16.50;78.30;;;;;;5051978;28;20696;-53
2021/04/29 09:00:58;;;;;;;11.57;10.53;;;16.60;78.50;;;;;;5049322;28;20676;-51
2021/04/29 09:03:33;;;;;;;9.73;8.83;;;16.70;78.20;;;;;;5052394;28;20637;-53
2021/04/29 09:06:01;;;;;;;11.93;10.93;;;16.70;76.80;;;;;;5052643;28;20679;-52
2021/04/29 09:08:28;;;;;;;12.43;11.40;;;16.60;73.90;;;;;;5051887;28;20650;-52
2021/04/29 09:11:05;;;;;;;12.20;11.20;;;16.50;72.50;;;;;;5052355;28;20684;-52
2021/04/29 09:13:32;;;;;;;11.60;10.63;;;16.50;71.00;;;;;;5052595;28;20626;-53
2021/04/29 09:16:11;;;;;;;13.47;12.37;;;16.50;71.70;;;;;;5052456;28;21233;-52
2021/04/29 09:18:40;;;;;;;13.47;12.13;;;16.70;70.40;;;;;;5046902;28;20651;-53
2021/04/29 09:21:10;;;;;;;12.07;11.00;;;16.90;71.70;;;;;;5046729;28;20634;-53
2021/04/29 09:23:39;;;;;;;13.20;11.90;;;16.90;69.00;;;;;;5037032;28;20631;-51
2021/04/29 09:26:17;;;;;;;11.70;10.60;;;16.80;67.40;;;;;;5052155;28;20687;-52
2021/04/29 09:28:45;;;;;;;12.40;10.70;;;16.70;67.40;;;;;;5044705;28;20677;-51
2021/04/29 09:31:13;;;;;;;12.00;11.00;;;16.60;65.60;;;;;;5038521;28;20700;-51
2021/04/29 09:33:40;;;;;;;12.87;11.67;;;16.50;65.20;;;;;;5033973;28;20654;-51
2021/04/29 09:36:08;;;;;;;12.13;10.93;;;16.60;66.30;;;;;;5032217;28;20627;-51
2021/04/29 09:38:37;;;;;;;12.20;10.97;;;16.50;63.00;;;;;;5032061;28;20655;-52
2021/04/29 09:41:05;;;;;;;14.30;12.80;;;16.70;65.20;;;;;;5042285;28;20684;-51
2021/04/29 09:43:32;;;;;;;11.63;10.63;;;16.60;65.50;;;;;;5048134;28;20629;-53
2021/04/29 09:46:01;;;;;;;13.53;11.80;;;16.70;67.40;;;;;;5043428;28;20622;-53
2021/04/29 09:48:35;;;;;;;17.47;15.63;;;16.80;66.70;;;;;;5052155;28;20642;-53
2021/04/29 09:51:02;;;;;;;14.70;13.50;;;17.00;67.20;;;;;;5033860;28;21191;-52
2021/04/29 09:53:38;;;;;;;13.63;12.33;;;17.00;67.10;;;;;;5051777;28;20622;-52
2021/04/29 09:56:08;;;;;;;13.37;12.27;;;17.10;66.60;;;;;;5031247;28;20634;-52
2021/04/29 09:58:37;;;;;;;13.57;12.47;;;17.20;65.50;;;;;;5050907;28;20654;-52
2021/04/29 10:01:05;;;;;;;12.80;11.60;;;17.20;64.40;;;;;;5051971;28;20932;-52
2021/04/29 10:03:32;;;;;;;12.37;11.07;;;17.50;63.50;;;;;;5050866;28;20660;-51
2021/04/29 10:06:00;;;;;;;10.77;9.83;;;17.70;60.60;;;;;;5048893;28;20700;-53
2021/04/29 10:08:27;;;;;;;10.97;9.93;;;18.00;57.20;;;;;;5050255;28;20650;-52
2021/04/29 10:10:55;;;;;;;11.03;9.87;;;18.10;57.20;;;;;;5051279;28;20622;-52
2021/04/29 10:13:25;;;;;;;10.60;9.80;;;18.40;56.80;;;;;;5050877;28;20692;-52
2021/04/29 10:16:25;;;;;;;9.27;8.40;;;18.40;55.90;;;;;;5052591;28;20614;-52
2021/04/29 10:18:53;;;;;;;8.97;8.07;;;18.50;53.60;;;;;;5038950;28;20655;-51
2021/04/29 10:21:20;;;;;;;7.30;6.60;;;18.50;54.10;;;;;;5050120;28;20855;-52
2021/04/29 10:23:47;;;;;;;8.43;7.73;;;18.60;53.40;;;;;;5050854;28;20692;-51
2021/04/29 10:26:24;;;;;;;9.50;7.27;;;18.50;52.60;;;;;;5050844;28;20637;-51
2021/04/29 10:28:56;;;;;;;8.10;7.40;;;18.40;51.50;;;;;;5047868;28;20687;-49
2021/04/29 10:31:24;;;;;;;7.50;6.80;;;18.40;52.60;;;;;;5049289;28;20691;-51
2021/04/29 10:33:53;;;;;;;8.70;7.87;;;18.30;53.50;;;;;;5047474;28;20688;-51
2021/04/29 10:36:20;;;;;;;7.53;6.97;;;18.10;53.70;;;;;;5045306;28;20703;-51
2021/04/29 10:38:47;;;;;;;10.17;7.60;;;18.20;52.00;;;;;;5066008;28;21077;-51
2021/04/29 10:41:18;;;;;;;7.00;6.40;;;18.00;51.10;;;;;;5051114;28;20638;-51
2021/04/29 10:43:45;;;;;;;8.70;8.00;;;17.80;51.00;;;;;;5036215;28;20647;-50
2021/04/29 10:46:28;;;;;;;8.07;7.37;;;17.80;51.90;;;;;;5040244;28;20626;-52
2021/04/29 10:48:55;;;;;;;11.17;7.50;;;18.10;51.90;;;;;;5037047;28;20625;-51
2021/04/29 10:51:28;;;;;;;8.70;7.90;;;18.10;51.70;;;;;;5041995;28;21268;-51
2021/04/29 10:53:55;;;;;;;10.30;9.40;;;18.10;52.30;;;;;;5050383;28;20618;-51
2021/04/29 10:56:22;;;;;;;10.13;9.23;;;18.20;52.60;;;;;;5051091;28;20630;-51
2021/04/29 10:58:49;;;;;;;11.87;8.73;;;18.20;52.30;;;;;;5050194;28;20708;-51
2021/04/29 11:01:16;;;;;;;8.13;7.53;;;18.30;52.80;;;;;;5051047;28;20629;-51
2021/04/29 11:03:46;;;;;;;7.77;6.97;;;18.20;51.00;;;;;;5049776;28;20630;-52
2021/04/29 11:06:14;;;;;;;6.93;6.40;;;18.10;50.90;;;;;;5049209;28;20627;-51
2021/04/29 11:08:43;;;;;;;7.70;7.13;;;18.20;48.70;;;;;;5048402;28;21179;-52
2021/04/29 11:11:35;;;;;;;6.77;6.17;;;18.60;49.10;;;;;;5036665;28;20614;-50
2021/04/29 11:14:04;;;;;;;5.47;5.07;;;19.40;46.10;;;;;;5040868;28;21056;-52
2021/04/29 11:16:46;;;;;;;7.10;5.70;;;19.90;44.40;;;;;;5053924;28;20693;-51
2021/04/29 11:19:56;;;;;;;8.70;6.00;;;20.10;43.20;;;;;;5044326;28;20747;-52
2021/04/29 11:22:29;;;;;;;7.30;6.60;;;20.70;43.40;;;;;;5051589;28;20631;-52
2021/04/29 11:24:56;;;;;;;4.00;3.27;;;20.80;43.10;;;;;;5054101;28;20606;-52
2021/04/29 11:27:25;;;;;;;3.83;3.53;;;20.40;41.90;;;;;;5052956;28;20657;-52
2021/04/29 11:29:56;;;;;;;6.10;4.53;;;19.80;42.80;;;;;;5044200;28;20630;-53
2021/04/29 11:32:23;;;;;;;5.73;5.23;;;19.40;44.30;;;;;;5053855;28;20672;-52
2021/04/29 11:34:53;;;;;;;5.10;4.70;;;19.00;44.30;;;;;;5053634;28;20621;-53
2021/04/29 11:37:20;;;;;;;8.60;6.30;;;18.50;45.50;;;;;;5051888;28;20650;-52
2021/04/29 11:39:57;;;;;;;8.17;6.67;;;18.00;47.70;;;;;;5046235;28;20645;-51
2021/04/29 11:42:25;;;;;;;7.90;7.30;;;17.50;54.60;;;;;;5053621;28;20736;-52
2021/04/29 11:45:10;;;;;;;9.17;8.37;;;16.60;63.40;;;;;;5069876;28;21185;-52
2021/04/29 11:47:38;;;;;;;10.30;9.40;;;15.50;73.20;;;;;;5041886;28;21070;-51
2021/04/29 11:50:06;;;;;;;9.73;8.80;;;14.90;83.40;;;;;;5053078;28;20638;-51
2021/04/29 11:52:33;;;;;;;8.93;7.37;;;14.70;88.50;;;;;;5052702;28;20626;-53
2021/04/29 11:55:00;;;;;;;5.50;4.70;;;14.70;85.70;;;;;;5052729;28;20618;-52
2021/04/29 11:57:30;;;;;;;4.20;3.90;;;15.00;81.20;;;;;;5051987;28;21264;-52
2021/04/29 11:59:56;;;;;;;3.67;3.37;;;15.60;79.40;;;;;;5054313;28;20640;-52
2021/04/29 12:02:25;;;;;;;3.50;3.30;;;16.30;74.70;;;;;;5054511;28;20699;-52
2021/04/29 12:04:52;;;;;;;3.67;3.37;;;17.10;69.60;;;;;;5055387;28;20622;-51
2021/04/29 12:07:19;;;;;;;3.33;3.03;;;17.60;61.40;;;;;;5052917;28;20712;-51
2021/04/29 12:09:46;;;;;;;3.73;3.00;;;17.70;62.00;;;;;;5053339;28;21202;-52
2021/04/29 12:12:15;;;;;;;4.00;3.30;;;17.50;58.30;;;;;;5038758;28;20637;-52
2021/04/29 12:14:48;;;;;;;3.17;2.90;;;17.30;58.00;;;;;;5052927;28;20645;-51
2021/04/29 12:17:15;;;;;;;4.60;3.00;;;17.20;56.40;;;;;;5052605;28;20719;-51
2021/04/29 12:19:47;;;;;;;6.67;3.73;;;17.20;56.80;;;;;;5053356;28;20665;-51
2021/04/29 12:22:14;;;;;;;3.90;3.60;;;17.20;57.00;;;;;;5047877;28;20649;-52
2021/04/29 12:24:41;;;;;;;3.87;3.30;;;17.30;55.00;;;;;;5049140;28;20631;-52
2021/04/29 12:27:12;;;;;;;4.33;4.03;;;17.30;53.80;;;;;;5062837;28;20684;-53
2021/04/29 12:29:40;;;;;;;3.50;3.30;;;17.60;54.60;;;;;;5047414;28;20625;-53
2021/04/29 12:32:07;;;;;;;4.03;3.70;;;18.10;53.10;;;;;;5041396;28;21204;-53
2021/04/29 12:34:39;;;;;;;3.73;3.40;;;18.40;51.40;;;;;;5042473;28;20677;-52
2021/04/29 12:37:06;;;;;;;3.60;3.30;;;18.70;51.20;;;;;;5045148;28;20653;-52
2021/04/29 12:39:34;;;;;;;4.67;3.90;;;19.20;50.90;;;;;;5051013;28;20695;-52